Time;durP1;ratioP1;P1;durP2;ratioP2;P2;SDS_P1;SDS_P2;PMS_P1;PMS_P2;Temp;Humidity;BMP_temperature;BMP_pressure;BME280_temperature;BME280_humidity;BME280_pressure;Samples;Min_cycle;Max_cycle;Signal;HPM_P1;HPM_P2
2022/12/13 00:02:19;;;;;;;7.00;3.50;;;;;;;;;;5088228;28;20032;-58
2022/12/13 00:04:45;;;;;;;10.30;2.70;;;;;;;;;;5087968;28;20020;-59
2022/12/13 00:07:12;;;;;;;10.07;4.83;;;;;;;;;;5088757;28;20073;-57
2022/12/13 00:09:41;;;;;;;7.53;2.97;;;;;;;;;;5093293;28;20091;-57
2022/12/13 00:12:07;;;;;;;4.43;2.93;;;;;;;;;;5092944;28;20450;-57
2022/12/13 00:14:34;;;;;;;27.00;7.83;;;;;;;;;;5092935;28;20031;-57
2022/12/13 00:17:01;;;;;;;14.43;7.43;;;;;;;;;;5092375;28;21078;-56
2022/12/13 00:19:28;;;;;;;6.03;3.03;;;;;;;;;;5092100;28;20433;-57
2022/12/13 00:21:54;;;;;;;14.50;6.77;;;;;;;;;;5087682;28;20028;-57
2022/12/13 00:24:21;;;;;;;7.40;4.60;;;;;;;;;;5087682;28;20070;-58
2022/12/13 00:26:48;;;;;;;12.77;4.93;;;;;;;;;;5087848;28;20082;-57
2022/12/13 00:29:14;;;;;;;15.60;3.83;;;;;;;;;;5087788;28;20446;-58
2022/12/13 00:31:41;;;;;;;6.47;3.57;;;;;;;;;;5091698;28;20027;-58
2022/12/13 00:34:08;;;;;;;8.30;3.40;;;;;;;;;;5092596;28;20027;-57
2022/12/13 00:36:34;;;;;;;13.23;3.03;;;;;;;;;;5092928;28;20482;-58
2022/12/13 00:39:01;;;;;;;12.83;4.93;;;;;;;;;;5092778;28;20026;-57
2022/12/13 00:41:29;;;;;;;5.90;3.93;;;;;;;;;;5092428;28;20577;-57
2022/12/13 00:43:56;;;;;;;14.57;7.23;;;;;;;;;;5087394;28;20103;-57
2022/12/13 00:46:23;;;;;;;11.33;5.63;;;;;;;;;;5086393;28;20042;-59
2022/12/13 00:48:50;;;;;;;9.97;3.87;;;;;;;;;;5086602;28;20092;-57
2022/12/13 00:51:17;;;;;;;5.90;3.10;;;;;;;;;;5087356;28;20077;-57
2022/12/13 00:53:44;;;;;;;15.83;4.37;;;;;;;;;;5092083;28;20020;-58
2022/12/13 00:56:15;;;;;;;6.83;3.20;;;;;;;;;;5092561;28;20020;-57
2022/12/13 00:58:42;;;;;;;10.13;2.87;;;;;;;;;;5091434;28;20044;-58
2022/12/13 01:01:12;;;;;;;5.43;3.00;;;;;;;;;;5092382;28;20121;-57
2022/12/13 01:03:39;;;;;;;4.90;2.10;;;;;;;;;;5092152;28;20020;-57
2022/12/13 01:06:17;;;;;;;4.37;2.70;;;;;;;;;;5087523;28;20520;-57
2022/12/13 01:08:43;;;;;;;3.83;2.50;;;;;;;;;;5086820;28;20527;-57
2022/12/13 01:11:10;;;;;;;2.77;1.80;;;;;;;;;;5087102;28;20032;-57
2022/12/13 01:13:37;;;;;;;5.03;2.43;;;;;;;;;;5086245;28;20020;-57
2022/12/13 01:16:05;;;;;;;5.13;2.00;;;;;;;;;;5091193;28;20406;-56
2022/12/13 01:18:32;;;;;;;7.13;2.27;;;;;;;;;;5091423;28;20543;-57
2022/12/13 01:21:03;;;;;;;8.83;2.60;;;;;;;;;;5089775;28;20071;-57
2022/12/13 01:23:30;;;;;;;8.30;1.47;;;;;;;;;;5092026;28;20024;-57
2022/12/13 01:25:57;;;;;;;1.70;0.90;;;;;;;;;;5090714;28;20035;-58
2022/12/13 01:28:24;;;;;;;6.10;2.30;;;;;;;;;;5086808;28;20054;-57
2022/12/13 01:30:55;;;;;;;2.33;1.80;;;;;;;;;;5085941;28;20028;-57
2022/12/13 01:33:22;;;;;;;11.97;2.93;;;;;;;;;;5086913;28;20091;-58
2022/12/13 01:35:48;;;;;;;5.93;3.20;;;;;;;;;;5086371;28;20434;-58
2022/12/13 01:38:15;;;;;;;5.00;2.53;;;;;;;;;;5087967;28;20028;-57
2022/12/13 01:40:46;;;;;;;11.37;3.57;;;;;;;;;;5086851;28;20070;-57
2022/12/13 01:43:14;;;;;;;4.23;2.27;;;;;;;;;;5091790;28;20020;-57
2022/12/13 01:45:41;;;;;;;3.80;2.27;;;;;;;;;;5088448;28;20051;-57
2022/12/13 01:48:12;;;;;;;8.00;2.20;;;;;;;;;;5091813;28;20027;-58
2022/12/13 01:50:41;;;;;;;6.57;2.70;;;;;;;;;;5086401;28;20032;-57
2022/12/13 01:53:09;;;;;;;6.70;2.33;;;;;;;;;;5086726;28;20027;-58
2022/12/13 01:55:38;;;;;;;4.87;2.43;;;;;;;;;;5086783;28;20077;-57
2022/12/13 01:58:05;;;;;;;3.83;2.23;;;;;;;;;;5086431;28;20016;-57
2022/12/13 02:00:34;;;;;;;9.87;2.77;;;;;;;;;;5090848;28;20416;-57
2022/12/13 02:03:02;;;;;;;7.43;2.73;;;;;;;;;;5095070;28;20032;-57
2022/12/13 02:05:37;;;;;;;8.73;2.90;;;;;;;;;;5095027;28;20032;-57
2022/12/13 02:08:05;;;;;;;5.93;2.53;;;;;;;;;;5095803;28;20104;-57
2022/12/13 02:10:32;;;;;;;8.23;3.27;;;;;;;;;;5095496;28;20047;-57
2022/12/13 02:12:59;;;;;;;1.93;1.40;;;;;;;;;;5090710;28;20063;-57
2022/12/13 02:15:28;;;;;;;9.60;2.03;;;;;;;;;;5090090;28;20039;-56
2022/12/13 02:18:01;;;;;;;3.40;2.40;;;;;;;;;;5090014;28;20024;-57
2022/12/13 02:20:28;;;;;;;8.13;3.80;;;;;;;;;;5089846;28;20344;-57
2022/12/13 02:23:04;;;;;;;4.37;3.00;;;;;;;;;;5094200;28;20031;-57
2022/12/13 02:25:49;;;;;;;3.63;2.17;;;;;;;;;;5095280;28;20024;-56
2022/12/13 02:28:25;;;;;;;2.45;1.70;;;;;;;;;;5095268;28;20016;-57
2022/12/13 02:30:54;;;;;;;9.23;3.03;;;;;;;;;;5095153;28;20061;-56
2022/12/13 02:33:20;;;;;;;5.13;3.23;;;;;;;;;;5094669;28;20496;-57
2022/12/13 02:36:04;;;;;;;8.17;3.13;;;;;;;;;;5089435;28;20062;-57
2022/12/13 02:38:30;;;;;;;3.50;2.33;;;;;;;;;;5089613;28;20028;-57
2022/12/13 02:41:18;;;;;;;8.70;3.17;;;;;;;;;;5088939;28;20085;-57
2022/12/13 02:43:48;;;;;;;4.40;2.33;;;;;;;;;;5090717;28;20028;-56
2022/12/13 02:46:17;;;;;;;12.17;2.40;;;;;;;;;;5094670;28;20023;-56
2022/12/13 02:48:45;;;;;;;2.17;1.37;;;;;;;;;;5094798;28;20036;-56
2022/12/13 02:51:12;;;;;;;3.27;1.97;;;;;;;;;;5094265;28;20085;-56
2022/12/13 02:53:40;;;;;;;2.30;1.83;;;;;;;;;;5094834;28;20104;-57
2022/12/13 02:56:07;;;;;;;3.07;1.93;;;;;;;;;;5093159;28;20089;-56
2022/12/13 02:58:35;;;;;;;3.77;2.40;;;;;;;;;;5088691;28;20054;-56
2022/12/13 03:01:25;;;;;;;2.67;2.23;;;;;;;;;;5088918;28;20036;-56
2022/12/13 03:03:54;;;;;;;7.10;2.60;;;;;;;;;;5088989;28;20034;-56
2022/12/13 03:06:30;;;;;;;7.60;3.47;;;;;;;;;;5090795;28;20032;-56
2022/12/13 03:08:56;;;;;;;11.60;3.17;;;;;;;;;;5094459;28;20090;-58
2022/12/13 03:11:27;;;;;;;2.97;2.23;;;;;;;;;;5086228;28;20030;-56
2022/12/13 03:13:58;;;;;;;8.40;3.27;;;;;;;;;;5083281;28;20016;-55
2022/12/13 03:16:29;;;;;;;6.30;3.63;;;;;;;;;;5093915;28;20073;-55
2022/12/13 03:19:00;;;;;;;5.07;1.80;;;;;;;;;;5091300;28;20032;-56
2022/12/13 03:21:27;;;;;;;27.37;2.00;;;;;;;;;;5088931;28;20367;-56
2022/12/13 03:23:54;;;;;;;4.50;2.20;;;;;;;;;;5088745;28;20497;-56
2022/12/13 03:26:22;;;;;;;3.30;1.83;;;;;;;;;;5088295;28;20032;-56
2022/12/13 03:28:49;;;;;;;16.03;3.43;;;;;;;;;;5089979;28;20497;-56
2022/12/13 03:31:16;;;;;;;6.10;3.83;;;;;;;;;;5093600;28;20058;-55
2022/12/13 03:33:43;;;;;;;3.03;1.90;;;;;;;;;;5093793;28;20012;-56
2022/12/13 03:36:10;;;;;;;4.53;2.83;;;;;;;;;;5093925;28;20536;-56
2022/12/13 03:38:37;;;;;;;34.07;3.60;;;;;;;;;;5092490;28;20119;-56
2022/12/13 03:41:06;;;;;;;6.40;2.23;;;;;;;;;;5091412;28;20048;-57
2022/12/13 03:43:33;;;;;;;1.83;1.50;;;;;;;;;;5084700;28;20032;-56
2022/12/13 03:46:00;;;;;;;3.67;2.67;;;;;;;;;;5085890;28;20081;-56
2022/12/13 03:48:26;;;;;;;3.33;2.33;;;;;;;;;;5072734;28;20028;-56
2022/12/13 03:50:54;;;;;;;2.40;1.90;;;;;;;;;;5069576;28;20028;-59
2022/12/13 03:53:21;;;;;;;4.97;2.90;;;;;;;;;;5073417;28;20359;-58
2022/12/13 03:55:48;;;;;;;2.87;2.30;;;;;;;;;;5073294;28;20021;-58
2022/12/13 03:58:15;;;;;;;3.33;2.50;;;;;;;;;;5075064;28;20020;-60
2022/12/13 04:00:42;;;;;;;1.40;1.20;;;;;;;;;;5091410;28;20028;-59
2022/12/13 04:03:08;;;;;;;4.83;2.67;;;;;;;;;;5090370;28;20024;-59
2022/12/13 04:05:35;;;;;;;5.67;3.40;;;;;;;;;;5087314;28;20031;-59
2022/12/13 04:08:02;;;;;;;2.73;1.63;;;;;;;;;;5087794;28;20132;-59
2022/12/13 04:10:28;;;;;;;5.50;2.83;;;;;;;;;;5088110;28;20023;-59
2022/12/13 04:15:47;;;;;;;4.28;3.08;;;;;;;;;;5092021;28;20485;-59
2022/12/13 04:18:18;;;;;;;4.60;1.67;;;;;;;;;;5092016;28;20032;-59
2022/12/13 04:20:45;;;;;;;3.60;1.90;;;;;;;;;;5093001;28;20036;-59
2022/12/13 04:23:11;;;;;;;5.30;3.50;;;;;;;;;;5092964;28;20471;-59
2022/12/13 04:25:39;;;;;;;6.13;3.07;;;;;;;;;;5089842;28;20538;-59
2022/12/13 04:28:06;;;;;;;4.33;2.00;;;;;;;;;;5087360;28;20070;-56
2022/12/13 04:30:33;;;;;;;2.50;1.70;;;;;;;;;;5087595;28;20496;-56
2022/12/13 04:33:00;;;;;;;3.93;1.77;;;;;;;;;;5087632;28;20031;-56
2022/12/13 04:35:27;;;;;;;2.43;1.53;;;;;;;;;;5088772;28;20024;-58
2022/12/13 04:37:55;;;;;;;2.33;1.83;;;;;;;;;;5092809;28;20077;-58
2022/12/13 04:40:22;;;;;;;3.97;2.23;;;;;;;;;;5091737;28;20039;-59
2022/12/13 04:42:49;;;;;;;8.53;2.10;;;;;;;;;;5092709;28;20031;-58
2022/12/13 04:45:16;;;;;;;2.03;1.50;;;;;;;;;;5092809;28;20086;-58
2022/12/13 04:47:43;;;;;;;5.00;3.07;;;;;;;;;;5090756;28;20120;-58
2022/12/13 04:50:10;;;;;;;2.70;1.70;;;;;;;;;;5087394;28;20031;-59
2022/12/13 04:52:38;;;;;;;3.10;2.33;;;;;;;;;;5087359;28;20458;-59
2022/12/13 04:55:06;;;;;;;3.77;1.93;;;;;;;;;;5086995;28;20441;-58
2022/12/13 04:57:32;;;;;;;2.23;1.73;;;;;;;;;;5087727;28;20551;-60
2022/12/13 04:59:59;;;;;;;2.90;1.93;;;;;;;;;;5092431;28;20028;-59
2022/12/13 05:02:26;;;;;;;6.93;3.97;;;;;;;;;;5091855;28;20020;-58
2022/12/13 05:04:53;;;;;;;2.40;1.60;;;;;;;;;;5092544;28;20050;-59
2022/12/13 05:07:20;;;;;;;3.63;2.10;;;;;;;;;;5092746;28;20479;-58
2022/12/13 05:09:46;;;;;;;2.67;1.90;;;;;;;;;;5087856;28;20024;-60
2022/12/13 05:12:13;;;;;;;2.73;1.70;;;;;;;;;;5077913;28;20056;-60
2022/12/13 05:14:40;;;;;;;4.10;2.83;;;;;;;;;;5081506;28;20024;-58
2022/12/13 05:17:06;;;;;;;4.53;2.67;;;;;;;;;;5087257;28;20028;-60
2022/12/13 05:19:33;;;;;;;2.13;1.73;;;;;;;;;;5086649;28;20025;-60
2022/12/13 05:22:00;;;;;;;1.83;1.43;;;;;;;;;;5092446;28;20053;-57
2022/12/13 05:24:26;;;;;;;3.07;1.93;;;;;;;;;;5092162;28;20036;-60
2022/12/13 05:26:53;;;;;;;23.20;2.13;;;;;;;;;;5092099;28;20016;-59
2022/12/13 05:29:20;;;;;;;4.90;2.53;;;;;;;;;;5091183;28;20174;-58
2022/12/13 05:31:46;;;;;;;4.30;1.67;;;;;;;;;;5089862;28;20036;-59
2022/12/13 05:34:13;;;;;;;3.57;2.47;;;;;;;;;;5085394;28;20076;-58
2022/12/13 05:36:40;;;;;;;4.53;1.87;;;;;;;;;;5088264;28;20095;-58
2022/12/13 05:39:07;;;;;;;4.73;2.30;;;;;;;;;;5089777;28;20028;-58
2022/12/13 05:41:35;;;;;;;3.07;2.73;;;;;;;;;;5089773;28;20566;-58
2022/12/13 05:44:02;;;;;;;6.57;3.83;;;;;;;;;;5094403;28;20117;-59
2022/12/13 05:46:28;;;;;;;3.20;2.37;;;;;;;;;;5095214;28;20151;-60
2022/12/13 05:48:55;;;;;;;3.67;2.67;;;;;;;;;;5095836;28;20023;-58
2022/12/13 05:51:22;;;;;;;2.20;1.77;;;;;;;;;;5096028;28;20543;-59
2022/12/13 05:53:48;;;;;;;7.60;3.57;;;;;;;;;;5095471;28;20424;-58
2022/12/13 05:56:15;;;;;;;4.37;2.87;;;;;;;;;;5090439;28;20025;-59
2022/12/13 05:58:42;;;;;;;4.53;2.63;;;;;;;;;;5090393;28;20031;-58
2022/12/13 06:01:12;;;;;;;3.43;2.33;;;;;;;;;;5090541;28;20060;-58
2022/12/13 06:03:39;;;;;;;3.87;2.40;;;;;;;;;;5090317;28;20055;-58
2022/12/13 06:06:08;;;;;;;3.77;2.90;;;;;;;;;;5095076;28;20020;-58
2022/12/13 06:08:35;;;;;;;2.33;1.83;;;;;;;;;;5095347;28;20036;-58
2022/12/13 06:11:02;;;;;;;5.40;3.33;;;;;;;;;;5095306;28;20545;-58
2022/12/13 06:13:29;;;;;;;12.03;2.90;;;;;;;;;;5095231;28;20024;-59
2022/12/13 06:16:00;;;;;;;2.47;1.87;;;;;;;;;;5095409;28;20028;-58
2022/12/13 06:18:27;;;;;;;5.33;3.33;;;;;;;;;;5090161;28;20390;-58
2022/12/13 06:21:00;;;;;;;2.47;2.10;;;;;;;;;;5090042;28;20031;-58
2022/12/13 06:23:27;;;;;;;3.27;2.50;;;;;;;;;;5089766;28;20020;-59
2022/12/13 06:25:53;;;;;;;1.93;1.50;;;;;;;;;;5089901;28;20028;-58
2022/12/13 06:28:21;;;;;;;3.37;2.27;;;;;;;;;;5094641;28;20020;-58
2022/12/13 06:30:51;;;;;;;4.07;2.47;;;;;;;;;;5095111;28;20024;-58
2022/12/13 06:33:18;;;;;;;2.50;1.43;;;;;;;;;;5095001;28;20024;-58
2022/12/13 06:35:45;;;;;;;3.33;2.10;;;;;;;;;;5094964;28;20492;-58
2022/12/13 06:38:12;;;;;;;4.33;2.70;;;;;;;;;;5094533;28;20042;-58
2022/12/13 06:40:39;;;;;;;4.27;3.00;;;;;;;;;;5089149;28;20044;-58
2022/12/13 06:43:06;;;;;;;2.20;1.87;;;;;;;;;;5089794;28;20024;-57
2022/12/13 06:45:32;;;;;;;3.63;2.77;;;;;;;;;;5089519;28;20020;-57
2022/12/13 06:47:59;;;;;;;5.87;3.00;;;;;;;;;;5089000;28;20028;-57
2022/12/13 06:50:26;;;;;;;3.93;3.00;;;;;;;;;;5093883;28;20027;-57
2022/12/13 06:52:53;;;;;;;17.73;3.73;;;;;;;;;;5094299;28;20482;-57
2022/12/13 06:55:19;;;;;;;3.77;2.17;;;;;;;;;;5094788;28;20020;-57
2022/12/13 06:57:46;;;;;;;7.37;4.00;;;;;;;;;;5094592;28;20115;-57
2022/12/13 07:00:13;;;;;;;4.53;2.37;;;;;;;;;;5094658;28;20032;-57
2022/12/13 07:02:40;;;;;;;6.63;3.83;;;;;;;;;;5089973;28;20027;-57
2022/12/13 07:05:07;;;;;;;3.17;2.33;;;;;;;;;;5088607;28;20016;-57
2022/12/13 07:07:33;;;;;;;4.37;2.67;;;;;;;;;;5089041;28;20027;-58
2022/12/13 07:10:00;;;;;;;3.97;2.57;;;;;;;;;;5088732;28;20024;-58
2022/12/13 07:12:27;;;;;;;2.43;1.93;;;;;;;;;;5092765;28;20024;-57
2022/12/13 07:14:54;;;;;;;4.63;3.23;;;;;;;;;;5094076;28;20017;-57
2022/12/13 07:17:21;;;;;;;3.83;2.70;;;;;;;;;;5094195;28;20039;-58
2022/12/13 07:19:48;;;;;;;3.57;2.33;;;;;;;;;;5093812;28;20042;-57
2022/12/13 07:22:14;;;;;;;3.73;2.43;;;;;;;;;;5093889;28;20028;-57
2022/12/13 07:24:41;;;;;;;4.07;3.00;;;;;;;;;;5089822;28;20024;-57
2022/12/13 07:27:08;;;;;;;6.17;2.70;;;;;;;;;;5088866;28;20032;-58
2022/12/13 07:29:34;;;;;;;3.73;2.73;;;;;;;;;;5088845;28;20443;-57
2022/12/13 07:32:01;;;;;;;3.93;2.97;;;;;;;;;;5088666;28;20028;-57
2022/12/13 07:34:28;;;;;;;6.30;3.03;;;;;;;;;;5091616;28;20024;-57
2022/12/13 07:36:54;;;;;;;3.23;2.60;;;;;;;;;;5093785;28;20028;-57
2022/12/13 07:39:24;;;;;;;4.80;2.93;;;;;;;;;;5093867;28;20056;-57
2022/12/13 07:41:53;;;;;;;5.97;3.10;;;;;;;;;;5093744;28;20024;-57
2022/12/13 07:44:20;;;;;;;5.17;2.47;;;;;;;;;;5093680;28;20024;-57
2022/12/13 07:46:47;;;;;;;3.07;2.10;;;;;;;;;;5089541;28;20066;-57
2022/12/13 07:49:13;;;;;;;4.80;3.60;;;;;;;;;;5088260;28;20063;-57
2022/12/13 07:51:40;;;;;;;5.33;2.33;;;;;;;;;;5087845;28;20481;-58
2022/12/13 07:54:07;;;;;;;1.70;1.43;;;;;;;;;;5088461;28;20027;-57
2022/12/13 07:56:34;;;;;;;5.33;3.37;;;;;;;;;;5090709;28;20036;-57
2022/12/13 07:59:01;;;;;;;2.43;1.90;;;;;;;;;;5092422;28;20058;-57
2022/12/13 08:01:28;;;;;;;3.83;2.70;;;;;;;;;;5093296;28;20024;-57
2022/12/13 08:03:55;;;;;;;3.67;2.13;;;;;;;;;;5093322;28;20028;-57
2022/12/13 08:06:21;;;;;;;1.83;1.63;;;;;;;;;;5093100;28;20020;-57
2022/12/13 08:08:49;;;;;;;4.60;3.27;;;;;;;;;;5090005;28;20034;-58
2022/12/13 08:11:16;;;;;;;3.73;2.77;;;;;;;;;;5087914;28;20081;-57
2022/12/13 08:13:43;;;;;;;3.40;2.63;;;;;;;;;;5087661;28;20402;-58
2022/12/13 08:16:11;;;;;;;6.13;2.67;;;;;;;;;;5087778;28;20558;-57
2022/12/13 08:18:39;;;;;;;4.13;2.73;;;;;;;;;;5090191;28;20036;-57
2022/12/13 08:21:08;;;;;;;3.80;2.37;;;;;;;;;;5092934;28;20032;-57
2022/12/13 08:23:34;;;;;;;4.67;3.37;;;;;;;;;;5092708;28;20543;-57
2022/12/13 08:26:02;;;;;;;3.73;3.27;;;;;;;;;;5093041;28;20016;-57
2022/12/13 08:28:29;;;;;;;6.17;3.90;;;;;;;;;;5092653;28;20020;-57
2022/12/13 08:30:56;;;;;;;5.20;3.40;;;;;;;;;;5090138;28;20501;-57
2022/12/13 08:33:22;;;;;;;4.33;3.27;;;;;;;;;;5087592;28;20381;-57
2022/12/13 08:35:49;;;;;;;2.37;2.00;;;;;;;;;;5087358;28;20020;-57
2022/12/13 08:38:16;;;;;;;2.57;2.07;;;;;;;;;;5087510;28;20036;-57
2022/12/13 08:40:42;;;;;;;4.23;3.17;;;;;;;;;;5088938;28;20024;-57
2022/12/13 08:43:10;;;;;;;4.40;3.00;;;;;;;;;;5092851;28;20024;-57
2022/12/13 08:45:37;;;;;;;6.30;1.97;;;;;;;;;;5092669;28;20028;-57
2022/12/13 08:48:03;;;;;;;3.10;2.50;;;;;;;;;;5092655;28;20024;-57
2022/12/13 08:50:31;;;;;;;7.87;3.80;;;;;;;;;;5092657;28;20348;-56
2022/12/13 08:52:57;;;;;;;5.07;2.40;;;;;;;;;;5090375;28;20719;-57
2022/12/13 08:55:24;;;;;;;2.60;1.73;;;;;;;;;;5087013;28;20024;-57
2022/12/13 08:57:51;;;;;;;5.87;3.33;;;;;;;;;;5086996;28;20260;-57
2022/12/13 09:00:19;;;;;;;3.10;2.30;;;;;;;;;;5087058;28;20296;-57
2022/12/13 09:02:45;;;;;;;2.97;2.47;;;;;;;;;;5088049;28;20253;-57
2022/12/13 09:05:12;;;;;;;3.77;3.20;;;;;;;;;;5092499;28;20027;-57
2022/12/13 09:07:40;;;;;;;3.53;2.80;;;;;;;;;;5092522;28;20046;-57
2022/12/13 09:10:07;;;;;;;3.90;1.87;;;;;;;;;;5092088;28;20261;-57
2022/12/13 09:12:34;;;;;;;6.93;3.13;;;;;;;;;;5092172;28;20024;-57
2022/12/13 09:15:00;;;;;;;5.93;4.00;;;;;;;;;;5090471;28;20028;-57
2022/12/13 09:17:27;;;;;;;3.50;2.93;;;;;;;;;;5086733;28;20517;-57
2022/12/13 09:19:54;;;;;;;2.47;2.10;;;;;;;;;;5086748;28;20296;-57
2022/12/13 09:22:20;;;;;;;3.53;2.43;;;;;;;;;;5086820;28;20272;-56
2022/12/13 09:24:47;;;;;;;2.00;1.57;;;;;;;;;;5087820;28;20264;-58
2022/12/13 09:27:13;;;;;;;1.90;1.33;;;;;;;;;;5092324;28;20365;-57
2022/12/13 09:29:40;;;;;;;3.60;2.60;;;;;;;;;;5092200;28;20264;-57
2022/12/13 09:32:07;;;;;;;7.13;3.73;;;;;;;;;;5092086;28;20257;-57
2022/12/13 09:34:33;;;;;;;4.90;3.67;;;;;;;;;;5091773;28;20264;-57
2022/12/13 09:37:00;;;;;;;2.60;2.17;;;;;;;;;;5091083;28;20260;-57
2022/12/13 09:39:27;;;;;;;3.33;2.53;;;;;;;;;;5086868;28;20296;-57
2022/12/13 09:41:55;;;;;;;2.83;1.97;;;;;;;;;;5086839;28;20260;-58
2022/12/13 09:44:27;;;;;;;3.23;2.53;;;;;;;;;;5086803;28;20348;-57
2022/12/13 09:46:54;;;;;;;2.80;1.97;;;;;;;;;;5087487;28;20259;-57
2022/12/13 09:49:27;;;;;;;3.30;1.93;;;;;;;;;;5090981;28;20318;-57
2022/12/13 09:51:55;;;;;;;1.90;1.50;;;;;;;;;;5092148;28;20296;-57
2022/12/13 09:54:23;;;;;;;2.57;2.10;;;;;;;;;;5092059;28;20289;-57
2022/12/13 09:56:53;;;;;;;2.93;2.13;;;;;;;;;;5092031;28;20261;-57
2022/12/13 09:59:24;;;;;;;2.43;1.67;;;;;;;;;;5090176;28;20287;-57
2022/12/13 10:01:50;;;;;;;3.53;2.90;;;;;;;;;;5086033;28;20264;-57
2022/12/13 10:04:17;;;;;;;2.73;2.03;;;;;;;;;;5086474;28;20777;-57
2022/12/13 10:06:44;;;;;;;5.87;2.77;;;;;;;;;;5086295;28;20326;-56
2022/12/13 10:09:12;;;;;;;3.90;3.23;;;;;;;;;;5087219;28;20271;-57
2022/12/13 10:11:49;;;;;;;3.40;2.83;;;;;;;;;;5091696;28;20631;-57
2022/12/13 10:14:31;;;;;;;6.10;2.70;;;;;;;;;;5091935;28;20249;-57
2022/12/13 10:17:00;;;;;;;2.20;1.97;;;;;;;;;;5091664;28;20253;-57
2022/12/13 10:19:26;;;;;;;4.33;3.30;;;;;;;;;;5091661;28;20769;-57
2022/12/13 10:21:53;;;;;;;3.07;2.60;;;;;;;;;;5089321;28;20257;-58
2022/12/13 10:24:26;;;;;;;3.90;3.07;;;;;;;;;;5089839;28;20321;-57
2022/12/13 10:26:53;;;;;;;3.87;2.03;;;;;;;;;;5089905;28;20344;-56
2022/12/13 10:29:20;;;;;;;3.13;2.23;;;;;;;;;;5089655;28;20283;-57
2022/12/13 10:31:51;;;;;;;2.70;2.33;;;;;;;;;;5091556;28;20332;-57
2022/12/13 10:34:43;;;;;;;4.97;2.70;;;;;;;;;;5095223;28;20252;-57
2022/12/13 10:37:29;;;;;;;3.77;2.50;;;;;;;;;;5094823;28;20260;-57
2022/12/13 10:39:57;;;;;;;3.60;2.97;;;;;;;;;;5094910;28;20711;-57
2022/12/13 10:42:23;;;;;;;3.43;2.73;;;;;;;;;;5095096;28;20253;-56
2022/12/13 10:45:07;;;;;;;2.77;2.07;;;;;;;;;;5091442;28;20722;-57
2022/12/13 10:47:35;;;;;;;2.47;2.00;;;;;;;;;;5089512;28;20306;-57
2022/12/13 10:50:02;;;;;;;4.03;3.50;;;;;;;;;;5088831;28;20269;-57
2022/12/13 10:52:33;;;;;;;5.77;2.97;;;;;;;;;;5089443;28;20259;-57
2022/12/13 10:55:02;;;;;;;4.13;3.23;;;;;;;;;;5093075;28;20256;-57
2022/12/13 10:57:29;;;;;;;4.60;3.93;;;;;;;;;;5094409;28;20260;-57
2022/12/13 10:59:55;;;;;;;11.73;3.63;;;;;;;;;;5094796;28;20292;-57
2022/12/13 11:02:28;;;;;;;3.10;2.57;;;;;;;;;;5094478;28;20261;-57
2022/12/13 11:04:57;;;;;;;3.57;2.47;;;;;;;;;;5094546;28;20264;-57
2022/12/13 11:07:23;;;;;;;3.70;3.10;;;;;;;;;;5090266;28;20267;-57
2022/12/13 11:09:50;;;;;;;5.63;3.53;;;;;;;;;;5089001;28;20645;-56
2022/12/13 11:12:19;;;;;;;3.40;2.67;;;;;;;;;;5089331;28;20765;-57
2022/12/13 11:14:53;;;;;;;4.43;3.37;;;;;;;;;;5088601;28;20265;-56
2022/12/13 11:17:21;;;;;;;5.60;3.70;;;;;;;;;;5092683;28;20263;-57
2022/12/13 11:19:55;;;;;;;6.93;3.33;;;;;;;;;;5094361;28;20290;-57
2022/12/13 11:22:26;;;;;;;2.97;2.40;;;;;;;;;;5094293;28;20265;-57
2022/12/13 11:25:00;;;;;;;3.83;2.70;;;;;;;;;;5094169;28;20267;-57
2022/12/13 11:27:29;;;;;;;2.80;2.27;;;;;;;;;;5094099;28;20249;-57
2022/12/13 11:30:08;;;;;;;7.10;3.57;;;;;;;;;;5088733;28;20274;-56
2022/12/13 11:32:44;;;;;;;2.93;2.43;;;;;;;;;;5088809;28;20767;-58
2022/12/13 11:35:19;;;;;;;3.33;2.37;;;;;;;;;;5088584;28;20317;-57
2022/12/13 11:38:02;;;;;;;3.87;2.83;;;;;;;;;;5088464;28;20756;-57
2022/12/13 11:40:31;;;;;;;5.07;2.63;;;;;;;;;;5093564;28;20700;-57
2022/12/13 11:43:30;;;;;;;6.73;3.67;;;;;;;;;;5093729;28;20256;-57
2022/12/13 11:45:59;;;;;;;3.67;3.00;;;;;;;;;;5092407;28;20346;-57
2022/12/13 11:48:39;;;;;;;3.10;2.37;;;;;;;;;;5093388;28;20387;-57
2022/12/13 11:51:08;;;;;;;3.60;2.67;;;;;;;;;;5091387;28;20321;-57
2022/12/13 11:53:34;;;;;;;4.43;3.10;;;;;;;;;;5088139;28;20257;-56
2022/12/13 11:56:10;;;;;;;2.63;1.90;;;;;;;;;;5088265;28;20742;-57
2022/12/13 11:58:40;;;;;;;3.00;2.47;;;;;;;;;;5088148;28;20284;-57
2022/12/13 12:01:17;;;;;;;2.27;1.70;;;;;;;;;;5090269;28;20253;-57
2022/12/13 12:03:46;;;;;;;5.37;2.43;;;;;;;;;;5093178;28;20275;-57
2022/12/13 12:06:24;;;;;;;7.57;2.20;;;;;;;;;;5093215;28;20256;-57
2022/12/13 12:08:59;;;;;;;4.63;2.27;;;;;;;;;;5093134;28;20619;-57
2022/12/13 12:11:26;;;;;;;4.97;3.33;;;;;;;;;;5093279;28;20815;-57
2022/12/13 12:14:00;;;;;;;5.43;3.63;;;;;;;;;;5089909;28;20020;-57
2022/12/13 12:16:40;;;;;;;4.30;3.25;;;;;;;;;;5087865;28;20264;-58
2022/12/13 12:19:14;;;;;;;9.60;4.67;;;;;;;;;;5087340;28;20135;-57
2022/12/13 12:21:56;;;;;;;4.13;3.13;;;;;;;;;;5087708;28;20746;-57
2022/12/13 12:24:49;;;;;;;5.10;3.57;;;;;;;;;;5092003;28;20261;-57
2022/12/13 12:27:39;;;;;;;2.90;2.27;;;;;;;;;;5091895;28;20713;-57
2022/12/13 12:30:09;;;;;;;2.67;2.10;;;;;;;;;;5093180;28;20596;-57
2022/12/13 12:32:54;;;;;;;3.80;3.17;;;;;;;;;;5092424;28;20276;-57
2022/12/13 12:35:34;;;;;;;3.65;3.28;;;;;;;;;;5091314;28;20256;-57
2022/12/13 12:38:20;;;;;;;5.97;3.50;;;;;;;;;;5087637;28;20538;-56
2022/12/13 12:40:46;;;;;;;;;;;;;;;;;;5087754;28;20271;-57
2022/12/13 12:43:15;;;;;;;5.87;2.73;;;;;;;;;;5087611;28;20314;-57
2022/12/13 12:45:48;;;;;;;3.50;2.67;;;;;;;;;;5088600;28;20265;-57
2022/12/13 12:48:44;;;;;;;3.57;2.83;;;;;;;;;;5092517;28;20339;-57
2022/12/13 12:51:11;;;;;;;;;;;;;;;;;;5092649;28;20265;-57
2022/12/13 12:53:41;;;;;;;5.53;4.03;;;;;;;;;;5092509;28;19947;-57
2022/12/13 12:56:21;;;;;;;3.77;2.80;;;;;;;;;;5092223;28;20624;-57
2022/12/13 12:58:47;;;;;;;2.70;2.30;;;;;;;;;;5087756;28;20849;-58
2022/12/13 13:01:20;;;;;;;3.30;2.57;;;;;;;;;;5087318;28;20281;-57
2022/12/13 13:03:48;;;;;;;5.40;3.10;;;;;;;;;;5087426;28;20809;-57
2022/12/13 13:06:18;;;;;;;12.60;4.70;;;;;;;;;;5086983;28;20730;-57
2022/12/13 13:08:55;;;;;;;6.80;4.80;;;;;;;;;;5090793;28;20822;-57
2022/12/13 13:11:26;;;;;;;5.73;4.53;;;;;;;;;;5092258;28;20286;-57
2022/12/13 13:13:59;;;;;;;5.37;4.07;;;;;;;;;;5092292;28;20265;-57
2022/12/13 13:16:35;;;;;;;6.03;3.10;;;;;;;;;;5092206;28;20310;-57
2022/12/13 13:19:10;;;;;;;6.70;3.83;;;;;;;;;;5091862;28;20364;-57
2022/12/13 13:21:46;;;;;;;6.30;3.90;;;;;;;;;;5086990;28;20260;-57
2022/12/13 13:24:12;;;;;;;;;;;;;;;;;;5087347;28;21020;-56
2022/12/13 13:26:43;;;;;;;5.27;4.00;;;;;;;;;;5086924;28;20342;-56
2022/12/13 13:29:30;;;;;;;7.67;4.07;;;;;;;;;;5086576;28;20245;-57
2022/12/13 13:32:04;;;;;;;7.43;5.23;;;;;;;;;;5091707;28;20739;-57
2022/12/13 13:34:31;;;;;;;4.27;3.07;;;;;;;;;;5092193;28;20340;-57
2022/12/13 13:36:59;;;;;;;5.17;3.93;;;;;;;;;;5091655;28;20265;-58
2022/12/13 13:39:29;;;;;;;4.03;2.80;;;;;;;;;;5083500;28;20284;-57
2022/12/13 13:42:09;;;;;;;9.33;5.57;;;;;;;;;;5090407;28;20272;-57
2022/12/13 13:44:45;;;;;;;4.67;3.63;;;;;;;;;;5086719;28;20257;-57
2022/12/13 13:47:13;;;;;;;7.27;5.57;;;;;;;;;;5086045;28;20269;-58
2022/12/13 13:49:44;;;;;;;9.53;4.70;;;;;;;;;;5085631;28;20352;-57
2022/12/13 13:52:17;;;;;;;10.10;6.07;;;;;;;;;;5087793;28;20727;-57
2022/12/13 13:54:47;;;;;;;9.70;5.47;;;;;;;;;;5091801;28;20292;-57
2022/12/13 13:57:40;;;;;;;5.37;4.13;;;;;;;;;;5092595;28;20264;-57
2022/12/13 14:00:11;;;;;;;5.43;4.10;;;;;;;;;;5094714;28;20934;-57
2022/12/13 14:02:41;;;;;;;5.93;5.20;;;;;;;;;;5095812;28;21198;-58
2022/12/13 14:05:23;;;;;;;8.73;6.27;;;;;;;;;;5091955;28;20028;-57
2022/12/13 14:07:49;;;;;;;4.70;4.03;;;;;;;;;;5088947;28;20618;-57
2022/12/13 14:10:16;;;;;;;8.10;5.73;;;;;;;;;;5089400;28;20462;-57
2022/12/13 14:13:01;;;;;;;7.60;6.30;;;;;;;;;;5089887;28;20033;-57
2022/12/13 14:15:46;;;;;;;9.30;5.80;;;;;;;;;;5094019;28;20032;-57
2022/12/13 14:18:31;;;;;;;9.73;5.50;;;;;;;;;;5093817;28;20377;-57
2022/12/13 14:20:58;;;;;;;5.70;4.00;;;;;;;;;;5095286;28;20099;-58
2022/12/13 14:23:40;;;;;;;14.87;4.83;;;;;;;;;;5094964;28;20028;-57
2022/12/13 14:26:13;;;;;;;8.07;6.37;;;;;;;;;;5093070;28;20070;-57
2022/12/13 14:28:51;;;;;;;8.30;5.70;;;;;;;;;;5088994;28;20097;-57
2022/12/13 14:31:26;;;;;;;11.13;7.20;;;;;;;;;;5089667;28;20039;-58
2022/12/13 14:33:54;;;;;;;6.60;5.00;;;;;;;;;;5089599;28;20034;-58
2022/12/13 14:36:27;;;;;;;13.57;5.63;;;;;;;;;;5089828;28;20028;-57
2022/12/13 14:39:01;;;;;;;7.73;6.47;;;;;;;;;;5094724;28;20363;-57
2022/12/13 14:41:28;;;;;;;8.97;7.87;;;;;;;;;;5094897;28;20084;-59
2022/12/13 14:43:55;;;;;;;11.10;8.30;;;;;;;;;;5094832;28;20256;-57
2022/12/13 14:46:21;;;;;;;6.97;5.17;;;;;;;;;;5094921;28;20060;-57
2022/12/13 14:48:51;;;;;;;12.03;7.63;;;;;;;;;;5092209;28;20053;-58
2022/12/13 14:51:23;;;;;;;8.13;6.60;;;;;;;;;;5089049;28;20040;-58
2022/12/13 14:53:52;;;;;;;17.80;7.73;;;;;;;;;;5089351;28;20062;-57
2022/12/13 14:56:19;;;;;;;11.30;7.03;;;;;;;;;;5089192;28;20036;-58
2022/12/13 14:58:53;;;;;;;12.70;6.60;;;;;;;;;;5090451;28;20020;-58
2022/12/13 15:01:28;;;;;;;7.60;4.78;;;;;;;;;;5094513;28;20024;-57